Scroll down
FLIGHT INFORMATION
KLM Royal Dutch Airlines

KLM8505

At Arrival Gate

KPAE
 EHAM
DATE: 2018-08-22
GATE:  -
GATE DEPARTURE: 07:28
TAKEOFF: 07:41
DATE: 2018-08-22
GATE: D4
LANDING: 16:40
GATE ARRIVAL: 16:51
FLIGHT DATA
Crew: 
Speed: 
947 kph
Altitude: 
41,013 ft
Stage Length: 
7,795.5 km
Block Time: 
9.3 hrs
Flight Time: 
9 hrs
Fuel Used: 
73,322 kg
Cleared Route: 
TRACK DATA
50,000 ft 1,000 kts
AIRCRAFT INFO AND CUMULATIVE STATS
Aircraft Type: 
B748
Registration: 
SELCAL: 
MSN/LN: 
0 / 1
Total Flights: 
6
Total Block Time: 
48.7 hrs
Total Flight Time: 
46.7 hrs
Total Fuel Used: 
534,103 kg
DATALINK LOG | Newest first | Current as of: 2021-09-20 17:01:14
LABEL SEQUENCE CONTENT Dn/Up
QD513416:51 29.8▼ Dn
QC402716:40▼ Dn
GA3840GATE D4▲ Up
GR3731EHAM▼ Dn
2U0710EHAM 221555Z 25012KT 210V290 9999 FEW022 22/16 Q1016 NOSIG▲ Up
2S0062EHAM▼ Dn
2U3640EHAM 221525Z 26012KT 220V300 9999 FEW022 23/17 Q1016 NOSIG▲ Up
2S3542EHAM▼ Dn
QB414807:41▼ Dn
QA281607:28 191.7▼ Dn
2U1326KPAE 220653Z 34003KT 4SM FU HZ OVC037 19/11 A2997 RMK AO2 SLP146 T01940111▲ Up
2S1258KPAE▼ Dn


AIRCRAFT HISTORY
FLIGHT DATE FLIGHT NO. ORIGIN DESTINATION CLEARED ROUTE BLOCK TIME FLIGHT TIME FUEL USED PILOT
2020-09-03KLM903KIAD VHHX KIAD JERES RASHE ELZ YYB MO VIRSO XULDU RB 77N00 80N10 82N20 PINAG EKLUN MABEM IDIMA OGTIL GIKSI TEMGA GANPA RUSED ARTUN NAROV DEBED PITIL OLDEP OKUNI RELSO RIKLI UNARU IDRAN ABGEL ULNAT RISUM SOKDA NEDEL DIBOR DISEG NAREM DILES SULOK BURIM PICAS ZOBUL POLHO UKBAD TMR WXI AKOMA IDULA ZHO OBLIK ESDOS HOK HG WHA LKO DAPRO AKUBA LUMKO PAVTU LIG NIVEM BEMAG OVTIX IRTAT ATAGA CON POU VHHX15.7 hrs15.3 hrs363,638 lbMarc O'Eland
2019-06-03KLM603EGLL KIAD EGLL D256G D261K WODNB D101H CPT KENET GAVGO DIKAS STU SLANY MALOT 5420N 5530N 5340N 5150N ALLRY EBONY SEAER SCARS ENE BAF BIGGO TRIBS BASYE DBABE LANNA MXE DELRO LIRCH BINNS HYPER FDK CARRY RW01C7.9 hrs7.6 hrs331,629 lbRandall Smith
2019-01-27KLM124EHAM EGLL EHAM IDRID ABNED IBNOS XAMAN LOGAN EGLL1.3 hrs0.9 hrs27,439 lb-HIDDEN-
2018-11-22KLM644KJFK EHAM BETTE ACK BRADD SUPRY 4650N 4840N 5030N 5120N DINIM ELSOX EVRIN NEKAP ABDUK NUMPO INLAK CPT BPK TOTRI MATCH BRAIN DAGGA CLN ARTOV REDFA SULUT6.8 hrs6.5 hrs151,945 lbDan Downs
2018-08-28KLM643EHAM KJFK 7.7 hrs7.4 hrs141,198 lbDan Downs
2018-08-22KLM8505KPAE EHAM 9.3 hrs9 hrs161,648 lbTom Landry